sensor_id;sensor_type;location;lat;lon;timestamp;pressure;altitude;pressure_sealevel;temperature;humidity
7105;BME280;3594;42.152;24.714;2023-02-12T00:00:04;-23811.97;;;-0.11;71.63
7105;BME280;3594;42.152;24.714;2023-02-12T00:02:31;-23807.81;;;-0.26;70.69
7105;BME280;3594;42.152;24.714;2023-02-12T00:04:56;-23813.97;;;-0.04;70.37
7105;BME280;3594;42.152;24.714;2023-02-12T00:07:21;-23806.09;;;-0.32;70.51
7105;BME280;3594;42.152;24.714;2023-02-12T00:09:47;-23816.13;;;0.04;69.75
7105;BME280;3594;42.152;24.714;2023-02-12T00:12:12;-23814.81;;;-0.01;71.10
7105;BME280;3594;42.152;24.714;2023-02-12T00:14:38;-23806.09;;;-0.32;70.81
7105;BME280;3594;42.152;24.714;2023-02-12T00:17:03;-23805.50;;;-0.34;72.63
7105;BME280;3594;42.152;24.714;2023-02-12T00:19:29;-23808.09;;;-0.25;73.53
7105;BME280;3594;42.152;24.714;2023-02-12T00:21:54;-23792.47;;;-0.80;75.56
7105;BME280;3594;42.152;24.714;2023-02-12T00:24:20;-23803.78;;;-0.40;75.92
7105;BME280;3594;42.152;24.714;2023-02-12T00:26:45;-23800.06;;;-0.53;76.63
7105;BME280;3594;42.152;24.714;2023-02-12T00:29:13;-23796.91;;;-0.64;75.89
7105;BME280;3594;42.152;24.714;2023-02-12T00:31:38;-23786.31;;;-1.02;77.35
7105;BME280;3594;42.152;24.714;2023-02-12T00:34:04;-23796.91;;;-0.64;78.00
7105;BME280;3594;42.152;24.714;2023-02-12T00:36:31;-23788.75;;;-0.93;78.26
7105;BME280;3594;42.152;24.714;2023-02-12T00:38:57;-23786.59;;;-1.01;77.25
7105;BME280;3594;42.152;24.714;2023-02-12T00:41:23;-23791.47;;;-0.83;75.02
7105;BME280;3594;42.152;24.714;2023-02-12T00:43:49;-23807.81;;;-0.26;72.70
7105;BME280;3594;42.152;24.714;2023-02-12T00:46:14;-23814.25;;;-0.03;68.96
7105;BME280;3594;42.152;24.714;2023-02-12T00:48:40;-23813.69;;;-0.05;65.22
7105;BME280;3594;42.152;24.714;2023-02-12T00:51:05;-23829.13;;;0.50;62.86
7105;BME280;3594;42.152;24.714;2023-02-12T00:53:31;-23830.28;;;0.54;61.16
7105;BME280;3594;42.152;24.714;2023-02-12T00:55:57;-23842.16;;;0.96;60.89
7105;BME280;3594;42.152;24.714;2023-02-12T00:58:22;-23844.31;;;1.03;60.47
7105;BME280;3594;42.152;24.714;2023-02-12T01:00:48;-23840.28;;;0.89;60.03
7105;BME280;3594;42.152;24.714;2023-02-12T01:03:14;-23848.44;;;1.18;58.82
7105;BME280;3594;42.152;24.714;2023-02-12T01:05:40;-23836.72;;;0.76;59.26
7105;BME280;3594;42.152;24.714;2023-02-12T01:08:05;-23846.03;;;1.09;58.02
7105;BME280;3594;42.152;24.714;2023-02-12T01:10:31;-23843.00;;;0.99;59.19
7105;BME280;3594;42.152;24.714;2023-02-12T01:12:57;-23850.44;;;1.25;58.93
7105;BME280;3594;42.152;24.714;2023-02-12T01:15:23;-23848.75;;;1.19;58.03
7105;BME280;3594;42.152;24.714;2023-02-12T01:17:52;-23849.31;;;1.21;58.43
7105;BME280;3594;42.152;24.714;2023-02-12T01:20:19;-23853.59;;;1.36;58.28
7105;BME280;3594;42.152;24.714;2023-02-12T01:22:45;-23850.59;;;1.25;57.75
7105;BME280;3594;42.152;24.714;2023-02-12T01:25:11;-23847.44;;;1.14;56.83
7105;BME280;3594;42.152;24.714;2023-02-12T01:27:37;-23861.03;;;1.62;54.41
7105;BME280;3594;42.152;24.714;2023-02-12T01:30:04;-23855.75;;;1.44;53.59
7105;BME280;3594;42.152;24.714;2023-02-12T01:32:30;-23859.59;;;1.57;53.02
7105;BME280;3594;42.152;24.714;2023-02-12T01:34:55;-23871.47;;;1.99;52.37
7105;BME280;3594;42.152;24.714;2023-02-12T01:37:21;-23865.31;;;1.77;51.91
7105;BME280;3594;42.152;24.714;2023-02-12T01:39:46;-23871.88;;;2.01;51.67
7105;BME280;3594;42.152;24.714;2023-02-12T01:42:14;-23862.59;;;1.68;52.06
7105;BME280;3594;42.152;24.714;2023-02-12T01:44:45;-23871.47;;;1.99;51.89
7105;BME280;3594;42.152;24.714;2023-02-12T01:47:29;-23863.47;;;1.71;51.52
7105;BME280;3594;42.152;24.714;2023-02-12T01:49:54;-23863.16;;;1.70;50.64
7105;BME280;3594;42.152;24.714;2023-02-12T01:52:24;-23879.59;;;2.28;51.09
7105;BME280;3594;42.152;24.714;2023-02-12T01:54:52;-23881.59;;;2.35;50.76
7105;BME280;3594;42.152;24.714;2023-02-12T01:57:19;-23880.16;;;2.30;50.20
7105;BME280;3594;42.152;24.714;2023-02-12T01:59:46;-23878.88;;;2.26;50.87
7105;BME280;3594;42.152;24.714;2023-02-12T02:02:13;-23866.16;;;1.81;49.72
7105;BME280;3594;42.152;24.714;2023-02-12T02:04:56;-23872.47;;;2.03;50.52
7105;BME280;3594;42.152;24.714;2023-02-12T02:07:23;-23876.59;;;2.17;50.10
7105;BME280;3594;42.152;24.714;2023-02-12T02:09:48;-23878.75;;;2.25;49.66
7105;BME280;3594;42.152;24.714;2023-02-12T02:12:14;-23868.16;;;1.88;49.75
7105;BME280;3594;42.152;24.714;2023-02-12T02:14:59;-23870.47;;;1.96;50.28
7105;BME280;3594;42.152;24.714;2023-02-12T02:23:29;-23868.88;;;1.90;49.74
7105;BME280;3594;42.152;24.714;2023-02-12T02:32:33;-23869.16;;;1.91;50.06
7105;BME280;3594;42.152;24.714;2023-02-12T02:34:59;-23873.31;;;2.06;49.85
7105;BME280;3594;42.152;24.714;2023-02-12T02:37:36;-23864.16;;;1.73;49.62
7105;BME280;3594;42.152;24.714;2023-02-12T02:43:06;-23872.59;;;2.03;50.61
7105;BME280;3594;42.152;24.714;2023-02-12T02:45:38;-23864.03;;;1.73;50.53
7105;BME280;3594;42.152;24.714;2023-02-12T02:48:19;-23876.59;;;2.17;50.41
7105;BME280;3594;42.152;24.714;2023-02-12T02:50:48;-23876.75;;;2.18;50.42
7105;BME280;3594;42.152;24.714;2023-02-12T02:53:21;-23873.47;;;2.06;51.10
7105;BME280;3594;42.152;24.714;2023-02-12T02:55:53;-23869.47;;;1.92;51.50
7105;BME280;3594;42.152;24.714;2023-02-12T02:58:25;-23863.59;;;1.71;52.34
7105;BME280;3594;42.152;24.714;2023-02-12T03:01:06;-23861.16;;;1.63;51.76
7105;BME280;3594;42.152;24.714;2023-02-12T03:03:38;-23858.75;;;1.54;51.97
7105;BME280;3594;42.152;24.714;2023-02-12T03:06:14;-23854.03;;;1.38;52.14
7105;BME280;3594;42.152;24.714;2023-02-12T03:08:57;-23851.75;;;1.29;53.02
7105;BME280;3594;42.152;24.714;2023-02-12T03:11:29;-23851.31;;;1.28;52.95
7105;BME280;3594;42.152;24.714;2023-02-12T03:16:33;-23863.03;;;1.69;51.91
7105;BME280;3594;42.152;24.714;2023-02-12T03:19:20;-23861.03;;;1.62;52.02
7105;BME280;3594;42.152;24.714;2023-02-12T03:22:00;-23863.75;;;1.72;51.59
7105;BME280;3594;42.152;24.714;2023-02-12T03:24:36;-23852.75;;;1.33;51.74
7105;BME280;3594;42.152;24.714;2023-02-12T03:27:08;-23853.16;;;1.34;51.97
7105;BME280;3594;42.152;24.714;2023-02-12T03:29:35;-23854.44;;;1.39;52.12
7105;BME280;3594;42.152;24.714;2023-02-12T03:32:32;-23856.59;;;1.47;51.86
7105;BME280;3594;42.152;24.714;2023-02-12T03:35:14;-23857.47;;;1.50;51.51
7105;BME280;3594;42.152;24.714;2023-02-12T03:40:28;-23860.59;;;1.61;51.85
7105;BME280;3594;42.152;24.714;2023-02-12T03:43:01;-23850.44;;;1.25;52.09
7105;BME280;3594;42.152;24.714;2023-02-12T03:45:44;-23863.03;;;1.69;52.03
7105;BME280;3594;42.152;24.714;2023-02-12T03:51:04;-23858.75;;;1.54;51.85
7105;BME280;3594;42.152;24.714;2023-02-12T03:53:34;-23867.47;;;1.85;51.34
7105;BME280;3594;42.152;24.714;2023-02-12T03:56:09;-23859.03;;;1.55;50.76
7105;BME280;3594;42.152;24.714;2023-02-12T03:58:37;-23864.75;;;1.75;50.88
7105;BME280;3594;42.152;24.714;2023-02-12T04:01:04;-23867.88;;;1.87;51.69
7105;BME280;3594;42.152;24.714;2023-02-12T04:03:30;-23874.03;;;2.08;51.81
7105;BME280;3594;42.152;24.714;2023-02-12T04:05:56;-23864.47;;;1.74;52.38
7105;BME280;3594;42.152;24.714;2023-02-12T04:08:22;-23873.31;;;2.06;51.81
7105;BME280;3594;42.152;24.714;2023-02-12T04:14:03;-23877.03;;;2.19;53.16
7105;BME280;3594;42.152;24.714;2023-02-12T04:19:34;-23880.75;;;2.32;51.79
7105;BME280;3594;42.152;24.714;2023-02-12T04:22:13;-23886.16;;;2.51;50.93
7105;BME280;3594;42.152;24.714;2023-02-12T04:27:34;-23884.75;;;2.46;49.68
7105;BME280;3594;42.152;24.714;2023-02-12T04:30:23;-23882.88;;;2.40;49.22
7105;BME280;3594;42.152;24.714;2023-02-12T04:33:04;-23879.88;;;2.29;49.58
7105;BME280;3594;42.152;24.714;2023-02-12T04:35:43;-23884.59;;;2.46;49.42
7105;BME280;3594;42.152;24.714;2023-02-12T04:38:20;-23888.59;;;2.60;49.54
7105;BME280;3594;42.152;24.714;2023-02-12T04:40:46;-23877.47;;;2.20;49.09
7105;BME280;3594;42.152;24.714;2023-02-12T04:43:13;-23882.31;;;2.38;49.09
7105;BME280;3594;42.152;24.714;2023-02-12T04:45:39;-23889.44;;;2.63;49.89
7105;BME280;3594;42.152;24.714;2023-02-12T04:48:04;-23882.75;;;2.39;48.71
7105;BME280;3594;42.152;24.714;2023-02-12T04:50:42;-23884.16;;;2.44;49.56
7105;BME280;3594;42.152;24.714;2023-02-12T04:53:08;-23880.31;;;2.31;49.75
7105;BME280;3594;42.152;24.714;2023-02-12T04:55:34;-23891.72;;;2.71;50.26
7105;BME280;3594;42.152;24.714;2023-02-12T04:57:59;-23896.16;;;2.87;49.57
7105;BME280;3594;42.152;24.714;2023-02-12T05:00:25;-23894.00;;;2.79;49.86
7105;BME280;3594;42.152;24.714;2023-02-12T05:02:50;-23889.03;;;2.61;49.88
7105;BME280;3594;42.152;24.714;2023-02-12T05:05:16;-23890.16;;;2.65;49.17
7105;BME280;3594;42.152;24.714;2023-02-12T05:07:42;-23890.00;;;2.65;49.58
7105;BME280;3594;42.152;24.714;2023-02-12T05:10:08;-23891.72;;;2.71;49.26
7105;BME280;3594;42.152;24.714;2023-02-12T05:12:33;-23895.72;;;2.85;49.69
7105;BME280;3594;42.152;24.714;2023-02-12T05:14:59;-23883.03;;;2.40;50.12
7105;BME280;3594;42.152;24.714;2023-02-12T05:17:24;-23882.03;;;2.37;50.66
7105;BME280;3594;42.152;24.714;2023-02-12T05:19:50;-23885.16;;;2.48;50.44
7105;BME280;3594;42.152;24.714;2023-02-12T05:22:16;-23897.00;;;2.90;50.68
7105;BME280;3594;42.152;24.714;2023-02-12T05:24:41;-23886.16;;;2.51;51.14
7105;BME280;3594;42.152;24.714;2023-02-12T05:27:07;-23888.72;;;2.60;50.96
7105;BME280;3594;42.152;24.714;2023-02-12T05:29:34;-23891.31;;;2.70;51.83
7105;BME280;3594;42.152;24.714;2023-02-12T05:31:59;-23890.16;;;2.65;51.40
7105;BME280;3594;42.152;24.714;2023-02-12T05:34:25;-23898.16;;;2.94;51.86
7105;BME280;3594;42.152;24.714;2023-02-12T05:36:50;-23897.44;;;2.91;51.91
7105;BME280;3594;42.152;24.714;2023-02-12T05:39:16;-23891.59;;;2.71;51.36
7105;BME280;3594;42.152;24.714;2023-02-12T05:41:41;-23903.44;;;3.13;50.81
7105;BME280;3594;42.152;24.714;2023-02-12T05:44:08;-23898.16;;;2.94;50.11
7105;BME280;3594;42.152;24.714;2023-02-12T05:46:35;-23900.88;;;3.03;50.43
7105;BME280;3594;42.152;24.714;2023-02-12T05:49:00;-23908.28;;;3.30;48.46
7105;BME280;3594;42.152;24.714;2023-02-12T05:51:27;-23902.16;;;3.08;48.34
7105;BME280;3594;42.152;24.714;2023-02-12T05:53:56;-23911.97;;;3.43;48.69
7105;BME280;3594;42.152;24.714;2023-02-12T05:56:27;-23911.69;;;3.42;48.31
7105;BME280;3594;42.152;24.714;2023-02-12T05:59:04;-23907.28;;;3.26;49.41
7105;BME280;3594;42.152;24.714;2023-02-12T06:01:37;-23917.53;;;3.63;48.93
7105;BME280;3594;42.152;24.714;2023-02-12T06:04:05;-23918.81;;;3.67;49.15
7105;BME280;3594;42.152;24.714;2023-02-12T06:06:31;-23918.41;;;3.66;47.50
7105;BME280;3594;42.152;24.714;2023-02-12T06:08:58;-23919.53;;;3.70;48.90
7105;BME280;3594;42.152;24.714;2023-02-12T06:11:24;-23919.81;;;3.71;49.69
7105;BME280;3594;42.152;24.714;2023-02-12T06:13:49;-23915.81;;;3.56;49.07
7105;BME280;3594;42.152;24.714;2023-02-12T06:16:20;-23916.97;;;3.61;49.60
7105;BME280;3594;42.152;24.714;2023-02-12T06:18:47;-23917.97;;;3.64;48.83
7105;BME280;3594;42.152;24.714;2023-02-12T06:21:14;-23923.53;;;3.84;48.76
7105;BME280;3594;42.152;24.714;2023-02-12T06:23:40;-23923.25;;;3.83;49.40
7105;BME280;3594;42.152;24.714;2023-02-12T06:26:05;-23931.78;;;4.13;48.58
7105;BME280;3594;42.152;24.714;2023-02-12T06:28:31;-23923.81;;;3.85;48.92
7105;BME280;3594;42.152;24.714;2023-02-12T06:30:57;-23932.22;;;4.15;48.97
7105;BME280;3594;42.152;24.714;2023-02-12T06:33:23;-23928.09;;;4.00;49.57
7105;BME280;3594;42.152;24.714;2023-02-12T06:35:48;-23928.22;;;4.00;49.72
7105;BME280;3594;42.152;24.714;2023-02-12T06:38:14;-23936.34;;;4.29;49.28
7105;BME280;3594;42.152;24.714;2023-02-12T06:40:39;-23939.34;;;4.40;49.00
7105;BME280;3594;42.152;24.714;2023-02-12T06:43:05;-23936.91;;;4.31;49.40
7105;BME280;3594;42.152;24.714;2023-02-12T06:45:30;-23941.63;;;4.48;49.80
7105;BME280;3594;42.152;24.714;2023-02-12T06:47:56;-23938.06;;;4.35;49.11
7105;BME280;3594;42.152;24.714;2023-02-12T06:50:22;-23939.06;;;4.39;49.63
7105;BME280;3594;42.152;24.714;2023-02-12T06:52:47;-23942.47;;;4.51;49.86
7105;BME280;3594;42.152;24.714;2023-02-12T06:55:13;-23955.84;;;4.99;48.99
7105;BME280;3594;42.152;24.714;2023-02-12T06:57:38;-23946.03;;;4.64;49.07
7105;BME280;3594;42.152;24.714;2023-02-12T07:00:04;-23946.16;;;4.64;49.32
7105;BME280;3594;42.152;24.714;2023-02-12T07:02:30;-23955.00;;;4.96;49.90
7105;BME280;3594;42.152;24.714;2023-02-12T07:04:55;-23964.94;;;5.31;50.23
7105;BME280;3594;42.152;24.714;2023-02-12T07:07:21;-23955.69;;;4.98;50.90
7105;BME280;3594;42.152;24.714;2023-02-12T07:09:46;-23953.44;;;4.90;50.92
7105;BME280;3594;42.152;24.714;2023-02-12T07:12:12;-23958.53;;;5.08;51.99
7105;BME280;3594;42.152;24.714;2023-02-12T07:14:37;-23955.00;;;4.96;52.45
7105;BME280;3594;42.152;24.714;2023-02-12T07:17:03;-23963.66;;;5.26;52.43
7105;BME280;3594;42.152;24.714;2023-02-12T07:19:29;-23956.25;;;5.00;52.56
7105;BME280;3594;42.152;24.714;2023-02-12T07:21:55;-23958.69;;;5.09;52.14
7105;BME280;3594;42.152;24.714;2023-02-12T07:24:21;-23964.66;;;5.30;52.15
7105;BME280;3594;42.152;24.714;2023-02-12T07:26:47;-23958.25;;;5.07;52.42
7105;BME280;3594;42.152;24.714;2023-02-12T07:29:13;-23964.50;;;5.29;52.70
7105;BME280;3594;42.152;24.714;2023-02-12T07:31:39;-23963.38;;;5.25;52.90
7105;BME280;3594;42.152;24.714;2023-02-12T07:34:04;-23967.06;;;5.39;53.20
7105;BME280;3594;42.152;24.714;2023-02-12T07:36:31;-23962.81;;;5.23;52.30
7105;BME280;3594;42.152;24.714;2023-02-12T07:38:57;-23963.38;;;5.25;52.54
7105;BME280;3594;42.152;24.714;2023-02-12T07:41:28;-23961.81;;;5.20;52.81
7105;BME280;3594;42.152;24.714;2023-02-12T07:43:56;-23959.41;;;5.11;52.90
7105;BME280;3594;42.152;24.714;2023-02-12T07:46:25;-23965.09;;;5.31;52.83
7105;BME280;3594;42.152;24.714;2023-02-12T07:48:54;-23972.47;;;5.58;52.85
7105;BME280;3594;42.152;24.714;2023-02-12T07:51:20;-23972.19;;;5.57;53.07
7105;BME280;3594;42.152;24.714;2023-02-12T07:53:46;-23970.63;;;5.51;52.47
7105;BME280;3594;42.152;24.714;2023-02-12T07:56:15;-23977.75;;;5.76;52.32
7105;BME280;3594;42.152;24.714;2023-02-12T07:58:42;-23972.47;;;5.58;52.24
7105;BME280;3594;42.152;24.714;2023-02-12T08:01:15;-23981.00;;;5.88;52.04
7105;BME280;3594;42.152;24.714;2023-02-12T08:03:41;-23981.44;;;5.90;52.30
7105;BME280;3594;42.152;24.714;2023-02-12T08:06:09;-23983.56;;;5.97;52.24
7105;BME280;3594;42.152;24.714;2023-02-12T08:08:34;-23977.31;;;5.75;52.34
7105;BME280;3594;42.152;24.714;2023-02-12T08:11:04;-23979.59;;;5.83;51.90
7105;BME280;3594;42.152;24.714;2023-02-12T08:13:30;-23985.56;;;6.04;52.77
7105;BME280;3594;42.152;24.714;2023-02-12T08:16:07;-23985.84;;;6.05;52.88
7105;BME280;3594;42.152;24.714;2023-02-12T08:18:33;-23980.00;;;5.85;52.96
7105;BME280;3594;42.152;24.714;2023-02-12T08:21:28;-23986.56;;;6.08;54.02
7105;BME280;3594;42.152;24.714;2023-02-12T08:23:55;-23989.53;;;6.18;54.31
7105;BME280;3594;42.152;24.714;2023-02-12T08:26:29;-23988.69;;;6.15;54.78
7105;BME280;3594;42.152;24.714;2023-02-12T08:29:16;-23989.25;;;6.17;56.04
7105;BME280;3594;42.152;24.714;2023-02-12T08:31:47;-23985.41;;;6.04;55.99
7105;BME280;3594;42.152;24.714;2023-02-12T08:37:10;-23983.00;;;5.95;58.11
7105;BME280;3594;42.152;24.714;2023-02-12T08:39:35;-23992.66;;;6.30;59.96
7105;BME280;3594;42.152;24.714;2023-02-12T08:42:01;-23985.97;;;6.06;60.43
7105;BME280;3594;42.152;24.714;2023-02-12T08:44:26;-23996.50;;;6.43;60.75
7105;BME280;3594;42.152;24.714;2023-02-12T08:46:53;-24000.88;;;6.59;61.57
7105;BME280;3594;42.152;24.714;2023-02-12T08:49:24;-24002.59;;;6.65;61.85
7105;BME280;3594;42.152;24.714;2023-02-12T08:51:52;-23989.38;;;6.18;62.71
7105;BME280;3594;42.152;24.714;2023-02-12T08:54:20;-23993.78;;;6.34;63.17
7105;BME280;3594;42.152;24.714;2023-02-12T08:56:47;-23997.91;;;6.48;63.62
7105;BME280;3594;42.152;24.714;2023-02-12T08:59:13;-23995.22;;;6.39;64.90
7105;BME280;3594;42.152;24.714;2023-02-12T09:01:40;-23986.41;;;6.07;65.42
7105;BME280;3594;42.152;24.714;2023-02-12T09:04:12;-23988.97;;;6.16;64.34
7105;BME280;3594;42.152;24.714;2023-02-12T09:06:39;-23995.06;;;6.38;63.68
7105;BME280;3594;42.152;24.714;2023-02-12T09:09:04;-24003.59;;;6.69;63.49
7105;BME280;3594;42.152;24.714;2023-02-12T09:11:33;-24008.41;;;6.86;62.29
7105;BME280;3594;42.152;24.714;2023-02-12T09:14:04;-24009.97;;;6.91;62.47
7105;BME280;3594;42.152;24.714;2023-02-12T09:16:32;-24004.28;;;6.71;62.96
7105;BME280;3594;42.152;24.714;2023-02-12T09:18:57;-24011.25;;;6.96;62.97
7105;BME280;3594;42.152;24.714;2023-02-12T09:21:23;-24001.75;;;6.62;62.78
7105;BME280;3594;42.152;24.714;2023-02-12T09:23:49;-24013.50;;;7.04;62.77
7105;BME280;3594;42.152;24.714;2023-02-12T09:26:18;-24002.59;;;6.65;63.91
7105;BME280;3594;42.152;24.714;2023-02-12T09:28:47;-24000.88;;;6.59;62.90
7105;BME280;3594;42.152;24.714;2023-02-12T09:31:16;-24004.56;;;6.72;63.11
7105;BME280;3594;42.152;24.714;2023-02-12T09:33:42;-24016.22;;;7.14;62.28
7105;BME280;3594;42.152;24.714;2023-02-12T09:36:10;-24021.59;;;7.33;61.27
7105;BME280;3594;42.152;24.714;2023-02-12T09:38:36;-24016.50;;;7.15;62.89
7105;BME280;3594;42.152;24.714;2023-02-12T09:43:41;-24001.88;;;6.62;62.08
7105;BME280;3594;42.152;24.714;2023-02-12T09:46:28;-24007.00;;;6.81;62.36
7105;BME280;3594;42.152;24.714;2023-02-12T09:49:08;-24005.16;;;6.74;63.38
7105;BME280;3594;42.152;24.714;2023-02-12T09:51:35;-24008.56;;;6.86;62.99
7105;BME280;3594;42.152;24.714;2023-02-12T09:54:06;-24012.09;;;6.99;61.67
7105;BME280;3594;42.152;24.714;2023-02-12T09:56:37;-24019.63;;;7.26;60.98
7105;BME280;3594;42.152;24.714;2023-02-12T09:59:07;-24026.00;;;7.48;60.42
7105;BME280;3594;42.152;24.714;2023-02-12T10:01:33;-24024.16;;;7.42;58.76
7105;BME280;3594;42.152;24.714;2023-02-12T10:04:00;-24030.09;;;7.63;58.40
7105;BME280;3594;42.152;24.714;2023-02-12T10:06:33;-24049.22;;;8.31;56.77
7105;BME280;3594;42.152;24.714;2023-02-12T10:09:23;-24051.34;;;8.39;56.15
7105;BME280;3594;42.152;24.714;2023-02-12T10:12:22;-24055.88;;;8.55;53.93
7105;BME280;3594;42.152;24.714;2023-02-12T10:14:58;-24058.72;;;8.65;53.38
7105;BME280;3594;42.152;24.714;2023-02-12T10:27:56;-24068.63;;;9.01;51.07
7105;BME280;3594;42.152;24.714;2023-02-12T10:33:11;-24073.28;;;9.17;50.96
7105;BME280;3594;42.152;24.714;2023-02-12T10:35:43;-24073.00;;;9.16;51.03
7105;BME280;3594;42.152;24.714;2023-02-12T10:38:21;-24076.53;;;9.29;50.72
7105;BME280;3594;42.152;24.714;2023-02-12T10:40:48;-24087.56;;;9.68;49.53
7105;BME280;3594;42.152;24.714;2023-02-12T10:43:14;-24076.25;;;9.28;49.62
7105;BME280;3594;42.152;24.714;2023-02-12T10:45:42;-24064.66;;;8.86;50.89
7105;BME280;3594;42.152;24.714;2023-02-12T10:53:25;-24073.72;;;9.19;51.47
7105;BME280;3594;42.152;24.714;2023-02-12T10:56:23;-24064.78;;;8.87;51.97
7105;BME280;3594;42.152;24.714;2023-02-12T10:58:53;-24068.47;;;9.00;51.79
7105;BME280;3594;42.152;24.714;2023-02-12T11:01:26;-24059.69;;;8.69;51.46
7105;BME280;3594;42.152;24.714;2023-02-12T11:03:54;-24071.44;;;9.11;51.20
7105;BME280;3594;42.152;24.714;2023-02-12T11:06:22;-24059.84;;;8.69;51.29
7105;BME280;3594;42.152;24.714;2023-02-12T11:08:50;-24064.38;;;8.85;51.69
7105;BME280;3594;42.152;24.714;2023-02-12T11:11:28;-24066.34;;;8.93;51.25
7105;BME280;3594;42.152;24.714;2023-02-12T11:14:06;-24073.13;;;9.17;50.16
7105;BME280;3594;42.152;24.714;2023-02-12T11:16:52;-24033.22;;;7.74;50.19
7105;BME280;3594;42.152;24.714;2023-02-12T11:19:23;-24075.81;;;9.26;50.35
7105;BME280;3594;42.152;24.714;2023-02-12T11:21:50;-24078.22;;;9.35;50.37
7105;BME280;3594;42.152;24.714;2023-02-12T11:24:42;-24086.97;;;9.66;48.66
7105;BME280;3594;42.152;24.714;2023-02-12T11:29:41;-24081.75;;;9.48;49.03
7105;BME280;3594;42.152;24.714;2023-02-12T11:32:14;-24081.47;;;9.47;48.65
7105;BME280;3594;42.152;24.714;2023-02-12T11:34:40;-24084.59;;;9.58;48.66
7105;BME280;3594;42.152;24.714;2023-02-12T11:37:14;-24085.84;;;9.62;48.08
7105;BME280;3594;42.152;24.714;2023-02-12T11:39:45;-24086.28;;;9.64;47.66
7105;BME280;3594;42.152;24.714;2023-02-12T11:42:20;-24079.22;;;9.39;48.67
7105;BME280;3594;42.152;24.714;2023-02-12T11:44:53;-24087.56;;;9.68;47.97
7105;BME280;3594;42.152;24.714;2023-02-12T11:47:28;-24091.78;;;9.84;48.00
7105;BME280;3594;42.152;24.714;2023-02-12T11:50:07;-24087.13;;;9.67;48.43
7105;BME280;3594;42.152;24.714;2023-02-12T11:52:35;-24087.56;;;9.68;47.94
7105;BME280;3594;42.152;24.714;2023-02-12T11:55:16;-24087.28;;;9.67;47.45
7105;BME280;3594;42.152;24.714;2023-02-12T11:57:48;-24086.44;;;9.64;48.54
7105;BME280;3594;42.152;24.714;2023-02-12T12:03:05;-24088.97;;;9.73;48.29
7105;BME280;3594;42.152;24.714;2023-02-12T12:05:39;-23994.66;;;6.37;48.77
7105;BME280;3594;42.152;24.714;2023-02-12T12:08:12;-24079.34;;;9.39;48.94
7105;BME280;3594;42.152;24.714;2023-02-12T12:10:57;-24078.66;;;9.37;49.06
7105;BME280;3594;42.152;24.714;2023-02-12T12:13:31;-24084.16;;;9.56;48.83
7105;BME280;3594;42.152;24.714;2023-02-12T12:19:44;-24080.63;;;9.44;49.17
7105;BME280;3594;42.152;24.714;2023-02-12T12:22:38;-24081.91;;;9.48;48.80
7105;BME280;3594;42.152;24.714;2023-02-12T12:27:55;-24086.00;;;9.63;49.05
7105;BME280;3594;42.152;24.714;2023-02-12T12:33:04;-24065.06;;;8.88;49.02
7105;BME280;3594;42.152;24.714;2023-02-12T12:35:58;-24086.00;;;9.63;49.43
7105;BME280;3594;42.152;24.714;2023-02-12T12:44:24;-24086.13;;;9.63;48.88
7105;BME280;3594;42.152;24.714;2023-02-12T12:55:25;-24094.75;;;9.94;48.08
7105;BME280;3594;42.152;24.714;2023-02-12T13:03:20;-24087.28;;;9.67;48.55
7105;BME280;3594;42.152;24.714;2023-02-12T13:08:27;-24083.75;;;9.55;48.98
7105;BME280;3594;42.152;24.714;2023-02-12T13:11:21;-24086.56;;;9.65;48.90
7105;BME280;3594;42.152;24.714;2023-02-12T13:13:52;-24077.09;;;9.31;49.13
7105;BME280;3594;42.152;24.714;2023-02-12T13:16:32;-24077.66;;;9.33;48.99
7105;BME280;3594;42.152;24.714;2023-02-12T13:21:58;-24080.50;;;9.43;49.48
7105;BME280;3594;42.152;24.714;2023-02-12T13:24:48;-24066.22;;;8.92;49.16
7105;BME280;3594;42.152;24.714;2023-02-12T13:27:24;-24087.41;;;9.68;49.43
7105;BME280;3594;42.152;24.714;2023-02-12T13:29:53;-24086.72;;;9.65;49.37
7105;BME280;3594;42.152;24.714;2023-02-12T13:32:27;-24087.41;;;9.68;49.07
7105;BME280;3594;42.152;24.714;2023-02-12T13:34:55;-24086.97;;;9.66;48.99
7105;BME280;3594;42.152;24.714;2023-02-12T13:37:34;-24084.16;;;9.56;49.50
7105;BME280;3594;42.152;24.714;2023-02-12T13:40:03;-24082.31;;;9.50;49.42
7105;BME280;3594;42.152;24.714;2023-02-12T13:53:22;-24077.66;;;9.33;50.60
7105;BME280;3594;42.152;24.714;2023-02-12T13:58:46;-24080.78;;;9.44;50.94
7105;BME280;3594;42.152;24.714;2023-02-12T14:01:35;-24076.25;;;9.28;50.95
7105;BME280;3594;42.152;24.714;2023-02-12T14:09:35;-24073.72;;;9.19;51.15
7105;BME280;3594;42.152;24.714;2023-02-12T14:12:04;-24072.44;;;9.14;51.94
7105;BME280;3594;42.152;24.714;2023-02-12T14:14:37;-24068.19;;;8.99;53.04
7105;BME280;3594;42.152;24.714;2023-02-12T14:19:53;-24062.81;;;8.80;54.88
7105;BME280;3594;42.152;24.714;2023-02-12T14:24:54;-24054.03;;;8.49;55.90
7105;BME280;3594;42.152;24.714;2023-02-12T14:27:31;-24050.50;;;8.36;56.41
7105;BME280;3594;42.152;24.714;2023-02-12T14:37:55;-24048.38;;;8.28;58.29
7105;BME280;3594;42.152;24.714;2023-02-12T14:43:17;-24042.84;;;8.09;58.38
7105;BME280;3594;42.152;24.714;2023-02-12T14:45:47;-24042.28;;;8.07;57.96
7105;BME280;3594;42.152;24.714;2023-02-12T14:51:19;-24042.56;;;8.08;59.11
7105;BME280;3594;42.152;24.714;2023-02-12T14:53:46;-24035.63;;;7.83;59.57
7105;BME280;3594;42.152;24.714;2023-02-12T14:56:13;-24032.38;;;7.71;59.91
7105;BME280;3594;42.152;24.714;2023-02-12T14:58:44;-24034.91;;;7.80;60.82
7105;BME280;3594;42.152;24.714;2023-02-12T15:01:10;-24033.66;;;7.76;61.21
7105;BME280;3594;42.152;24.714;2023-02-12T15:03:49;-24027.56;;;7.54;61.49
7105;BME280;3594;42.152;24.714;2023-02-12T15:06:31;-24030.81;;;7.66;62.21
7105;BME280;3594;42.152;24.714;2023-02-12T15:09:11;-24031.09;;;7.67;62.67
7105;BME280;3594;42.152;24.714;2023-02-12T15:11:58;-24029.69;;;7.62;62.30
7105;BME280;3594;42.152;24.714;2023-02-12T15:14:30;-24029.41;;;7.61;62.68
7105;BME280;3594;42.152;24.714;2023-02-12T15:17:06;-24027.56;;;7.54;63.37
7105;BME280;3594;42.152;24.714;2023-02-12T15:22:33;-24026.13;;;7.49;63.80
7105;BME280;3594;42.152;24.714;2023-02-12T15:27:49;-24020.75;;;7.30;64.73
7105;BME280;3594;42.152;24.714;2023-02-12T15:30:16;-24016.34;;;7.14;65.27
7105;BME280;3594;42.152;24.714;2023-02-12T15:32:43;-24022.72;;;7.37;65.12
7105;BME280;3594;42.152;24.714;2023-02-12T15:35:26;-24019.47;;;7.25;65.33
7105;BME280;3594;42.152;24.714;2023-02-12T15:37:54;-24018.19;;;7.21;66.08
7105;BME280;3594;42.152;24.714;2023-02-12T15:40:21;-24018.06;;;7.20;66.72
7105;BME280;3594;42.152;24.714;2023-02-12T15:42:59;-24014.94;;;7.09;67.27
7105;BME280;3594;42.152;24.714;2023-02-12T15:45:27;-24014.50;;;7.07;67.62